Time;durP1;ratioP1;P1;durP2;ratioP2;P2;SDS_P1;SDS_P2;PMS_P1;PMS_P2;Temp;Humidity;BMP_temperature;BMP_pressure;BME280_temperature;BME280_humidity;BME280_pressure;Samples;Min_cycle;Max_cycle;Signal;HPM_P1;HPM_P2
2024/01/06 00:02:16;;;;;;;2.50;2.30;;;;;;;;;;5034052;28;20481;-68
2024/01/06 00:04:42;;;;;;;2.60;2.40;;;;;;;;;;5033638;28;20061;-68
2024/01/06 00:07:09;;;;;;;2.53;2.33;;;;;;;;;;5033785;28;20067;-68
2024/01/06 00:09:35;;;;;;;2.40;2.20;;;;;;;;;;5016047;28;20553;-68
2024/01/06 00:12:02;;;;;;;2.80;2.50;;;;;;;;;;5015754;28;20052;-68
2024/01/06 00:14:28;;;;;;;2.72;2.53;;;;;;;;;;5033576;28;20049;-68
2024/01/06 00:16:54;;;;;;;2.30;2.10;;;;;;;;;;5015953;28;20543;-68
2024/01/06 00:19:20;;;;;;;2.28;2.15;;;;;;;;;;5033650;28;20041;-68
2024/01/06 00:21:46;;;;;;;2.60;2.40;;;;;;;;;;5033639;28;20047;-68
2024/01/06 00:24:12;;;;;;;2.38;2.17;;;;;;;;;;5033482;28;20136;-68
2024/01/06 00:26:38;;;;;;;2.67;2.47;;;;;;;;;;5015629;28;20046;-68
2024/01/06 00:29:04;;;;;;;2.42;2.22;;;;;;;;;;5015494;28;20409;-68
2024/01/06 00:31:30;;;;;;;2.40;2.20;;;;;;;;;;5015404;28;20037;-68
2024/01/06 00:33:56;;;;;;;2.30;2.10;;;;;;;;;;5033148;28;20107;-68
2024/01/06 00:36:22;;;;;;;2.60;2.40;;;;;;;;;;5015404;28;20053;-67
2024/01/06 00:38:48;;;;;;;2.47;2.28;;;;;;;;;;5014906;28;20041;-67
2024/01/06 00:41:15;;;;;;;2.15;2.05;;;;;;;;;;5014895;28;20045;-68
2024/01/06 00:43:41;;;;;;;2.40;2.20;;;;;;;;;;5032981;28;20052;-67
2024/01/06 00:46:07;;;;;;;2.75;2.55;;;;;;;;;;5033158;28;20042;-68
2024/01/06 00:48:33;;;;;;;1.92;1.83;;;;;;;;;;5033126;28;20421;-68
2024/01/06 00:50:59;;;;;;;2.38;2.17;;;;;;;;;;5033159;28;20069;-68
2024/01/06 00:53:25;;;;;;;2.55;2.35;;;2.40;99.90;;;;;;5033039;28;20041;-68
2024/01/06 00:55:51;;;;;;;2.00;1.90;;;;;;;;;;5015061;28;20508;-68
2024/01/06 00:58:16;;;;;;;2.88;2.67;;;2.60;99.90;;;;;;5014946;28;20045;-68
2024/01/06 01:00:42;;;;;;;2.38;2.17;;;2.50;99.90;;;;;;5015123;28;20049;-67
2024/01/06 01:03:08;;;;;;;2.50;2.30;;;2.60;99.90;;;;;;5032678;28;20041;-68
2024/01/06 01:05:33;;;;;;;2.10;2.00;;;2.40;99.90;;;;;;5032813;28;20052;-68
2024/01/06 01:07:59;;;;;;;2.65;2.45;;;2.60;99.90;;;;;;5014815;28;20505;-68
2024/01/06 01:10:24;;;;;;;2.22;2.03;;;2.70;99.90;;;;;;5032777;28;20504;-68
2024/01/06 01:12:50;;;;;;;3.35;2.47;;;2.70;99.90;;;;;;5032721;28;20477;-68
2024/01/06 01:15:16;;;;;;;2.60;2.35;;;2.70;99.90;;;;;;5014711;28;20042;-67
2024/01/06 01:17:41;;;;;;;2.72;2.53;;;2.80;99.90;;;;;;5032633;28;20041;-68
2024/01/06 01:20:07;;;;;;;2.80;2.60;;;3.00;99.90;;;;;;5032662;28;20382;-67
2024/01/06 01:22:33;;;;;;;2.85;2.65;;;2.50;99.90;;;;;;5014645;28;20438;-68
2024/01/06 01:25:00;;;;;;;2.58;2.38;;;2.50;99.90;;;;;;5014550;28;20068;-67
2024/01/06 01:27:26;;;;;;;2.63;2.42;;;2.70;99.90;;;;;;5014461;28;20048;-68
2024/01/06 01:29:52;;;;;;;2.53;2.33;;;2.60;99.90;;;;;;5032168;28;20042;-68
2024/01/06 01:32:18;;;;;;;2.38;2.17;;;2.80;99.90;;;;;;5032436;28;20342;-68
2024/01/06 01:34:44;;;;;;;2.63;2.42;;;2.50;99.90;;;;;;5014479;28;20041;-68
2024/01/06 01:37:10;;;;;;;2.72;2.53;;;2.50;99.90;;;;;;5032377;28;20041;-67
2024/01/06 01:39:35;;;;;;;2.67;2.47;;;2.50;99.90;;;;;;5014390;28;20053;-67
2024/01/06 01:42:01;;;;;;;3.10;2.80;;;2.60;99.90;;;;;;4998250;28;20049;-67
2024/01/06 01:44:26;;;;;;;2.70;2.50;;;2.70;99.90;;;;;;5032247;28;20059;-67
2024/01/06 01:46:52;;;;;;;2.95;2.75;;;2.70;99.90;;;;;;5032252;28;20041;-68
2024/01/06 01:49:18;;;;;;;2.53;2.33;;;2.60;99.90;;;;;;5032021;28;20091;-68
2024/01/06 01:51:44;;;;;;;2.20;2.00;;;2.70;99.90;;;;;;5031957;28;20083;-68
2024/01/06 01:54:10;;;;;;;2.60;2.40;;;3.00;99.90;;;;;;5032235;28;20432;-68
2024/01/06 01:56:36;;;;;;;1.98;1.88;;;2.40;99.90;;;;;;5031874;28;20037;-68
2024/01/06 01:59:13;;;;;;;2.60;2.40;;;2.90;99.90;;;;;;5032075;28;20029;-68
2024/01/06 02:01:42;;;;;;;2.25;2.05;;;2.80;99.90;;;;;;5032119;28;20033;-68
2024/01/06 02:04:11;;;;;;;2.40;2.20;;;2.50;99.90;;;;;;5032120;28;20037;-68
2024/01/06 02:06:37;;;;;;;2.33;2.13;;;2.30;99.90;;;;;;5032367;28;20580;-68
2024/01/06 02:09:03;;;;;;;2.10;1.90;;;2.80;99.90;;;;;;5031588;28;20093;-68
2024/01/06 02:11:28;;;;;;;2.13;1.92;;;2.80;99.90;;;;;;5032338;28;20037;-65
2024/01/06 02:13:54;;;;;;;2.38;2.17;;;2.20;99.90;;;;;;5013911;28;20557;-65
2024/01/06 02:16:19;;;;;;;1.95;1.85;;;3.10;99.90;;;;;;5031993;28;20409;-65
2024/01/06 02:18:46;;;;;;;2.60;2.40;;;2.50;99.90;;;;;;5031963;28;20093;-65
2024/01/06 02:21:11;;;;;;;2.40;1.95;;;2.40;99.90;;;;;;5031923;28;20057;-64
2024/01/06 02:23:37;;;;;;;2.38;2.17;;;2.40;99.90;;;;;;5031911;28;20046;-65
2024/01/06 02:26:03;;;;;;;2.53;2.33;;;2.50;99.90;;;;;;5031755;28;20046;-65
2024/01/06 02:28:29;;;;;;;2.22;2.08;;;2.20;99.90;;;;;;5014087;28;20038;-65
2024/01/06 02:30:54;;;;;;;2.80;2.60;;;2.10;99.90;;;;;;5013834;28;20048;-65
2024/01/06 02:33:20;;;;;;;2.53;2.33;;;2.10;99.90;;;;;;5013835;28;20504;-65
2024/01/06 02:35:46;;;;;;;2.40;2.20;;;2.10;99.90;;;;;;4997457;28;20099;-65
2024/01/06 02:38:12;;;;;;;2.50;2.30;;;2.00;99.90;;;;;;5031716;28;20552;-65
2024/01/06 02:40:38;;;;;;;2.80;2.58;;;1.90;99.90;;;;;;5031771;28;20111;-65
2024/01/06 02:43:04;;;;;;;2.63;2.42;;;2.10;99.90;;;;;;5013931;28;20045;-65
2024/01/06 02:45:29;;;;;;;2.65;2.45;;;2.10;99.90;;;;;;5031717;28;20397;-65
2024/01/06 02:47:55;;;;;;;2.67;2.47;;;2.10;99.90;;;;;;5031349;28;20052;-65
2024/01/06 02:50:21;;;;;;;2.83;2.63;;;2.10;99.90;;;;;;5013721;28;20045;-65
2024/01/06 02:52:47;;;;;;;2.88;2.67;;;2.00;99.90;;;;;;5031648;28;20079;-65
2024/01/06 02:55:12;;;;;;;2.53;2.33;;;2.10;99.90;;;;;;5031635;28;20081;-65
2024/01/06 02:57:40;;;;;;;2.72;2.33;;;2.10;99.90;;;;;;5031560;28;20073;-65
2024/01/06 03:00:07;;;;;;;3.15;2.85;;;2.40;99.90;;;;;;5013628;28;20049;-65
2024/01/06 03:02:33;;;;;;;2.65;2.45;;;2.10;99.90;;;;;;5014076;28;20049;-65
2024/01/06 03:04:58;;;;;;;2.50;2.30;;;2.00;99.90;;;;;;5035146;28;20417;-65
2024/01/06 03:07:24;;;;;;;2.78;2.55;;;2.10;99.90;;;;;;5016934;28;20054;-65
2024/01/06 03:09:50;;;;;;;3.08;2.88;;;2.00;99.90;;;;;;5035042;28;20539;-65
2024/01/06 03:12:15;;;;;;;2.67;2.47;;;2.00;99.90;;;;;;5035024;28;20037;-65
2024/01/06 03:14:41;;;;;;;2.55;2.35;;;2.00;99.90;;;;;;5034664;28;20108;-65
2024/01/06 03:17:10;;;;;;;2.40;2.20;;;1.60;99.90;;;;;;5016975;28;20041;-65
2024/01/06 03:19:36;;;;;;;2.70;2.50;;;1.90;99.90;;;;;;5034523;28;20398;-65
2024/01/06 03:22:02;;;;;;;2.60;2.40;;;2.00;99.90;;;;;;5034798;28;20044;-73
2024/01/06 03:24:28;;;;;;;2.88;2.67;;;1.90;99.90;;;;;;5017026;28;20136;-62
2024/01/06 03:26:53;;;;;;;2.80;2.60;;;1.90;99.90;;;;;;5035025;28;20080;-61
2024/01/06 03:29:19;;;;;;;3.40;3.10;;;1.90;99.90;;;;;;5016972;28;20044;-62
2024/01/06 03:31:45;;;;;;;2.65;2.45;;;1.90;99.90;;;;;;5034959;28;20448;-62
2024/01/06 03:34:11;;;;;;;2.63;2.42;;;1.60;99.90;;;;;;5017129;28;20485;-61
2024/01/06 03:36:40;;;;;;;2.72;2.53;;;1.90;99.90;;;;;;5000792;28;20056;-63
2024/01/06 03:39:07;;;;;;;2.63;2.42;;;1.70;99.90;;;;;;5016911;28;20053;-62
2024/01/06 03:41:32;;;;;;;3.03;2.50;;;1.80;99.90;;;;;;5016854;28;20049;-61
2024/01/06 03:43:58;;;;;;;3.20;2.90;;;1.90;99.90;;;;;;5017007;28;20393;-62
2024/01/06 03:46:24;;;;;;;3.05;2.75;;;1.90;99.90;;;;;;5016436;28;20124;-62
2024/01/06 03:48:50;;;;;;;3.97;2.63;;;2.00;99.90;;;;;;5016474;28;20041;-63
2024/01/06 03:51:15;;;;;;;4.10;2.88;;;2.00;99.90;;;;;;5016322;28;20076;-62
2024/01/06 03:53:41;;;;;;;2.25;2.05;;;1.80;99.90;;;;;;5016314;28;20068;-62
2024/01/06 03:56:07;;;;;;;2.22;2.03;;;1.90;99.90;;;;;;5016740;28;20049;-62
2024/01/06 03:58:33;;;;;;;2.42;2.22;;;2.40;99.90;;;;;;5016453;28;20053;-62
2024/01/06 04:00:59;;;;;;;2.25;2.05;;;;;;;;;;5016607;28;20489;-62
2024/01/06 04:03:25;;;;;;;2.50;2.30;;;1.80;99.90;;;;;;5016053;28;20080;-61
2024/01/06 04:05:50;;;;;;;2.45;2.25;;;1.80;99.90;;;;;;5016069;28;20076;-62
2024/01/06 04:08:17;;;;;;;2.97;2.70;;;1.80;99.90;;;;;;5033717;28;20053;-61
2024/01/06 04:10:43;;;;;;;2.20;2.00;;;2.00;99.90;;;;;;5033974;28;20045;-62
2024/01/06 04:13:10;;;;;;;2.40;2.20;;;1.80;99.90;;;;;;5015895;28;20497;-62
2024/01/06 04:15:36;;;;;;;2.28;2.08;;;1.80;99.90;;;;;;5033763;28;20041;-61
2024/01/06 04:18:03;;;;;;;2.22;2.03;;;1.80;99.90;;;;;;5033634;28;20041;-62
2024/01/06 04:20:29;;;;;;;2.42;2.15;;;1.70;99.90;;;;;;4999787;28;20144;-62
2024/01/06 04:22:55;;;;;;;2.45;2.15;;;1.80;99.90;;;;;;5015691;28;20374;-61
2024/01/06 04:25:21;;;;;;;2.35;2.15;;;1.80;99.90;;;;;;5015582;28;20056;-62
2024/01/06 04:27:48;;;;;;;2.70;2.50;;;1.80;99.90;;;;;;5033677;28;20037;-62
2024/01/06 04:30:14;;;;;;;4.28;2.58;;;1.80;99.90;;;;;;5033646;28;20524;-61
2024/01/06 04:32:40;;;;;;;2.33;2.13;;;2.10;99.90;;;;;;4999369;28;20049;-63
2024/01/06 04:35:06;;;;;;;2.47;2.28;;;1.80;99.90;;;;;;5015642;28;20060;-67
2024/01/06 04:37:32;;;;;;;2.08;1.98;;;1.80;99.90;;;;;;5033410;28;20117;-67
2024/01/06 04:39:58;;;;;;;2.47;2.28;;;1.70;99.90;;;;;;5015330;28;20492;-67
2024/01/06 04:42:23;;;;;;;2.22;2.03;;;1.70;99.90;;;;;;5033032;28;20404;-67
2024/01/06 04:44:50;;;;;;;2.03;1.83;;;1.70;99.90;;;;;;5033212;28;20041;-67
2024/01/06 04:47:15;;;;;;;3.00;2.10;;;1.70;99.90;;;;;;5032968;28;20041;-67
2024/01/06 04:49:41;;;;;;;1.90;1.80;;;1.70;99.90;;;;;;5015342;28;20109;-67
2024/01/06 04:52:07;;;;;;;2.25;2.05;;;1.80;99.90;;;;;;5033129;28;20508;-67
2024/01/06 04:54:32;;;;;;;2.15;1.95;;;1.80;99.90;;;;;;5032863;28;20049;-68
2024/01/06 04:56:59;;;;;;;2.60;2.22;;;1.70;99.90;;;;;;5015079;28;20041;-68
2024/01/06 04:59:24;;;;;;;2.08;1.88;;;2.00;99.90;;;;;;5033010;28;20087;-67
2024/01/06 05:01:51;;;;;;;2.10;2.00;;;1.70;99.90;;;;;;5032929;28;20041;-67
2024/01/06 05:04:17;;;;;;;1.70;1.60;;;1.70;99.90;;;;;;5032814;28;20046;-67
2024/01/06 05:06:43;;;;;;;2.22;2.03;;;1.80;99.90;;;;;;5032641;28;20120;-67
2024/01/06 05:09:09;;;;;;;2.05;1.95;;;1.80;99.90;;;;;;5032543;28;20180;-67
2024/01/06 05:11:35;;;;;;;1.95;1.83;;;1.80;99.90;;;;;;5032749;28;20048;-67
2024/01/06 05:14:00;;;;;;;2.22;2.03;;;1.70;99.90;;;;;;5014774;28;20071;-67
2024/01/06 05:16:27;;;;;;;2.10;1.90;;;1.70;99.90;;;;;;5032703;28;20488;-67
2024/01/06 05:18:53;;;;;;;2.30;2.10;;;1.70;99.90;;;;;;5032366;28;20083;-67
2024/01/06 05:21:19;;;;;;;1.90;1.80;;;1.70;99.90;;;;;;5014710;28;20046;-68
2024/01/06 05:23:44;;;;;;;1.95;1.85;;;1.90;99.90;;;;;;4998525;28;20037;-67
2024/01/06 05:26:11;;;;;;;1.85;1.75;;;2.30;99.90;;;;;;5032051;28;20042;-67
2024/01/06 05:28:37;;;;;;;2.63;2.28;;;1.70;99.90;;;;;;5032525;28;20397;-67
2024/01/06 05:31:02;;;;;;;2.05;1.88;;;1.70;99.90;;;;;;5014522;28;20037;-67
2024/01/06 05:33:28;;;;;;;2.20;2.00;;;1.70;99.90;;;;;;5032455;28;20040;-67
2024/01/06 05:35:54;;;;;;;1.73;1.63;;;1.70;99.90;;;;;;5032385;28;20539;-67
2024/01/06 05:38:19;;;;;;;2.22;1.80;;;1.70;99.90;;;;;;5032107;28;20049;-68
2024/01/06 05:40:45;;;;;;;2.10;1.98;;;1.60;99.90;;;;;;5014328;28;20042;-67
2024/01/06 05:43:11;;;;;;;2.13;1.95;;;1.60;99.90;;;;;;5014548;28;20110;-67
2024/01/06 05:45:37;;;;;;;2.00;1.75;;;1.60;99.90;;;;;;5014523;28;20052;-62
2024/01/06 05:48:04;;;;;;;2.35;1.85;;;1.60;99.90;;;;;;5014598;28;20507;-61
2024/01/06 05:50:30;;;;;;;2.47;2.28;;;1.60;99.90;;;;;;5014591;28;20489;-62
2024/01/06 05:52:56;;;;;;;2.75;2.25;;;1.60;99.90;;;;;;5014400;28;20111;-61
2024/01/06 05:55:22;;;;;;;2.30;2.10;;;1.60;99.90;;;;;;5032294;28;20124;-61
2024/01/06 05:57:48;;;;;;;1.90;1.80;;;1.60;99.90;;;;;;5031953;28;20033;-62
2024/01/06 06:00:14;;;;;;;2.35;2.15;;;1.60;99.90;;;;;;5032337;28;20533;-61
2024/01/06 06:02:40;;;;;;;1.90;1.80;;;1.60;99.90;;;;;;5014322;28;20064;-61
2024/01/06 06:05:05;;;;;;;3.22;2.30;;;1.60;99.90;;;;;;5014175;28;20073;-62
2024/01/06 06:07:31;;;;;;;2.35;2.15;;;1.60;99.90;;;;;;5031993;28;20057;-62
2024/01/06 06:09:57;;;;;;;2.30;2.10;;;1.60;99.90;;;;;;5014175;28;20084;-61
2024/01/06 06:12:22;;;;;;;1.95;1.75;;;1.60;99.90;;;;;;5014341;28;20492;-62
2024/01/06 06:14:48;;;;;;;2.20;2.00;;;1.60;99.90;;;;;;5014196;28;20049;-61
2024/01/06 06:17:13;;;;;;;1.80;1.70;;;1.60;99.90;;;;;;5014209;28;20038;-61
2024/01/06 06:19:39;;;;;;;2.40;2.20;;;1.60;99.90;;;;;;5031799;28;20401;-61
2024/01/06 06:22:05;;;;;;;1.95;1.80;;;1.70;99.90;;;;;;5014375;28;20496;-61
2024/01/06 06:24:31;;;;;;;1.90;1.80;;;1.60;99.90;;;;;;5014101;28;20053;-61
2024/01/06 06:26:56;;;;;;;1.90;1.80;;;1.60;99.90;;;;;;5014334;28;20042;-61
2024/01/06 06:29:22;;;;;;;2.30;2.10;;;1.70;99.90;;;;;;5032277;28;20092;-61
2024/01/06 06:31:48;;;;;;;1.60;1.50;;;1.60;99.90;;;;;;5014063;28;20041;-62
2024/01/06 06:34:14;;;;;;;2.40;2.20;;;1.70;99.90;;;;;;5014434;28;20041;-62
2024/01/06 06:36:39;;;;;;;2.05;1.83;;;1.80;99.90;;;;;;5014328;28;20103;-61
2024/01/06 06:39:05;;;;;;;2.03;1.83;;;1.60;99.90;;;;;;5017094;28;20041;-62
2024/01/06 06:41:31;;;;;;;2.33;2.13;;;1.60;99.90;;;;;;5035300;28;20049;-60
2024/01/06 06:43:57;;;;;;;2.05;1.88;;;1.60;99.90;;;;;;5017726;28;20132;-60
2024/01/06 06:46:23;;;;;;;2.00;1.90;;;1.60;99.90;;;;;;5035637;28;20069;-60
2024/01/06 06:48:50;;;;;;;1.67;1.58;;;1.50;99.90;;;;;;5035497;28;20527;-60
2024/01/06 06:51:16;;;;;;;2.10;1.90;;;1.60;99.90;;;;;;5017585;28;20071;-60
2024/01/06 06:53:41;;;;;;;1.92;1.83;;;1.60;99.90;;;;;;5035621;28;20049;-63
2024/01/06 06:56:07;;;;;;;1.80;1.70;;;1.60;99.90;;;;;;5035480;28;20076;-67
2024/01/06 06:58:33;;;;;;;1.98;1.88;;;1.60;99.90;;;;;;5017251;28;20493;-66
2024/01/06 07:00:58;;;;;;;1.80;1.70;;;1.60;99.90;;;;;;5017182;28;20546;-67
2024/01/06 07:03:24;;;;;;;1.90;1.80;;;1.90;99.90;;;;;;5035123;28;20037;-66
2024/01/06 07:05:50;;;;;;;1.80;1.70;;;1.60;99.90;;;;;;5034992;28;20073;-66
2024/01/06 07:08:15;;;;;;;2.08;1.92;;;1.60;99.90;;;;;;5034782;28;20132;-66
2024/01/06 07:10:41;;;;;;;1.60;1.50;;;2.20;99.90;;;;;;5035090;28;20049;-68
2024/01/06 07:13:07;;;;;;;1.60;1.50;;;1.60;99.90;;;;;;5034946;28;20033;-66
2024/01/06 07:15:32;;;;;;;1.80;1.67;;;1.60;99.90;;;;;;5016769;28;20068;-66
2024/01/06 07:17:58;;;;;;;1.90;1.80;;;1.60;99.90;;;;;;5034847;28;20037;-66
2024/01/06 07:20:24;;;;;;;2.20;2.00;;;1.60;99.90;;;;;;5034849;28;20064;-66
2024/01/06 07:22:49;;;;;;;2.15;1.98;;;1.60;99.90;;;;;;5016788;28;20493;-66
2024/01/06 07:25:15;;;;;;;1.70;1.60;;;1.60;99.90;;;;;;5016608;28;20432;-66
2024/01/06 07:27:41;;;;;;;1.90;1.80;;;1.50;99.90;;;;;;5034698;28;20041;-66
2024/01/06 07:30:09;;;;;;;1.90;1.80;;;1.50;99.90;;;;;;5034684;28;20110;-66
2024/01/06 07:32:35;;;;;;;1.60;1.50;;;1.50;99.90;;;;;;5034670;28;20397;-66
2024/01/06 07:35:02;;;;;;;1.75;1.65;;;1.50;99.90;;;;;;5016604;28;20069;-66
2024/01/06 07:37:27;;;;;;;1.75;1.65;;;1.50;99.90;;;;;;5034576;28;20045;-66
2024/01/06 07:39:53;;;;;;;2.08;1.80;;;1.40;99.90;;;;;;5034497;28;20394;-66
2024/01/06 07:42:19;;;;;;;1.60;1.50;;;1.40;99.90;;;;;;5034252;28;20095;-66
2024/01/06 07:44:44;;;;;;;1.90;1.80;;;1.50;99.90;;;;;;5034218;28;20064;-66
2024/01/06 07:47:10;;;;;;;1.52;1.42;;;1.50;99.90;;;;;;5016372;28;20041;-67
2024/01/06 07:49:36;;;;;;;1.67;1.58;;;1.50;99.90;;;;;;5015937;28;20071;-66
2024/01/06 07:52:02;;;;;;;1.73;1.50;;;1.50;99.90;;;;;;5016410;28;20038;-66
2024/01/06 07:54:28;;;;;;;1.60;1.50;;;1.50;99.90;;;;;;5034193;28;20041;-67
2024/01/06 07:56:53;;;;;;;1.80;1.65;;;1.50;99.90;;;;;;5034124;28;20603;-67
2024/01/06 07:59:19;;;;;;;1.60;1.50;;;1.50;99.90;;;;;;5033856;28;20481;-66
2024/01/06 08:01:45;;;;;;;1.67;1.58;;;1.80;99.90;;;;;;5015965;28;20037;-65
2024/01/06 08:04:10;;;;;;;1.60;1.50;;;1.50;99.90;;;;;;5033942;28;20521;-73
2024/01/06 08:06:36;;;;;;;1.60;1.50;;;1.50;99.90;;;;;;5015862;28;20088;-73
2024/01/06 08:09:03;;;;;;;1.60;1.50;;;1.50;99.90;;;;;;5012491;28;20090;-72
2024/01/06 08:11:29;;;;;;;2.03;1.90;;;1.50;99.90;;;;;;5014182;28;20087;-71
2024/01/06 08:13:54;;;;;;;1.73;1.60;;;1.50;99.90;;;;;;5014090;28;20389;-72
2024/01/06 08:16:21;;;;;;;2.33;2.05;;;1.50;99.90;;;;;;5014083;28;20550;-69
2024/01/06 08:18:46;;;;;;;2.00;1.65;;;1.50;99.90;;;;;;5012578;28;20042;-74
2024/01/06 08:21:12;;;;;;;2.15;1.95;;;1.50;99.90;;;;;;5012758;28;20056;-72
2024/01/06 08:23:38;;;;;;;1.67;1.58;;;1.50;99.90;;;;;;5012676;28;20069;-72
2024/01/06 08:26:05;;;;;;;1.83;1.73;;;1.50;99.90;;;;;;5012379;28;20049;-71
2024/01/06 08:28:31;;;;;;;2.20;2.00;;;1.50;99.90;;;;;;5012339;28;20041;-71
2024/01/06 08:30:56;;;;;;;1.77;1.67;;;1.50;99.90;;;;;;5012294;28;20457;-73
2024/01/06 08:33:22;;;;;;;1.70;1.60;;;1.60;99.90;;;;;;5013475;28;20045;-72
2024/01/06 08:35:48;;;;;;;2.30;2.10;;;1.60;99.90;;;;;;5012368;28;20045;-72
2024/01/06 08:38:14;;;;;;;2.28;2.05;;;1.70;99.90;;;;;;5012429;28;20049;-72
2024/01/06 08:40:40;;;;;;;1.90;1.80;;;1.60;99.90;;;;;;5013404;28;20076;-71
2024/01/06 08:43:06;;;;;;;2.35;2.15;;;1.70;99.90;;;;;;5013661;28;20034;-70
2024/01/06 08:45:31;;;;;;;2.08;1.98;;;1.60;99.90;;;;;;5011784;28;20048;-71
2024/01/06 08:47:57;;;;;;;2.17;2.00;;;1.70;99.90;;;;;;5012319;28;20080;-71
2024/01/06 08:50:23;;;;;;;2.45;1.90;;;2.00;99.90;;;;;;5011885;28;20545;-71
2024/01/06 08:52:48;;;;;;;2.08;1.88;;;1.70;99.90;;;;;;5013410;28;20065;-70
2024/01/06 08:55:14;;;;;;;2.05;1.95;;;1.70;99.90;;;;;;5011758;28;20049;-71
2024/01/06 08:57:39;;;;;;;2.03;1.83;;;1.70;99.90;;;;;;5013094;28;20038;-71
2024/01/06 09:00:06;;;;;;;2.40;2.20;;;1.70;99.90;;;;;;5012501;28;20045;-72
2024/01/06 09:02:31;;;;;;;2.38;2.08;;;1.70;99.90;;;;;;5011504;28;20088;-70
2024/01/06 09:04:57;;;;;;;2.20;2.00;;;1.70;99.90;;;;;;5012579;28;20089;-69
2024/01/06 09:07:23;;;;;;;1.88;1.77;;;1.70;99.90;;;;;;5018332;28;20053;-70
2024/01/06 09:09:48;;;;;;;1.90;1.80;;;1.70;99.90;;;;;;5032668;28;20477;-72
2024/01/06 09:12:14;;;;;;;2.00;1.90;;;1.70;99.90;;;;;;5032425;28;20187;-70
2024/01/06 09:14:40;;;;;;;2.05;1.95;;;1.70;99.90;;;;;;5014744;28;20187;-71
2024/01/06 09:17:06;;;;;;;2.22;2.03;;;1.60;99.90;;;;;;5032450;28;20448;-70
2024/01/06 09:19:31;;;;;;;2.13;1.92;;;1.60;99.90;;;;;;5014473;28;20045;-70
2024/01/06 09:21:57;;;;;;;2.00;1.90;;;1.60;99.90;;;;;;5032474;28;20405;-70
2024/01/06 09:24:23;;;;;;;2.38;2.17;;;1.70;99.90;;;;;;5014447;28;20513;-70
2024/01/06 09:26:50;;;;;;;2.00;1.90;;;1.70;99.90;;;;;;5032011;28;20125;-71
2024/01/06 09:29:16;;;;;;;2.28;2.08;;;1.70;99.90;;;;;;5032040;28;20044;-71
2024/01/06 09:31:43;;;;;;;2.35;1.90;;;1.70;99.90;;;;;;5032283;28;20033;-71
2024/01/06 09:34:12;;;;;;;1.80;1.70;;;1.70;99.90;;;;;;5031971;28;20044;-71
2024/01/06 09:36:37;;;;;;;2.40;2.20;;;1.70;99.90;;;;;;5032056;28;20049;-70
2024/01/06 09:39:04;;;;;;;2.10;1.90;;;1.70;99.90;;;;;;5014098;28;20111;-71
2024/01/06 09:41:30;;;;;;;2.33;2.13;;;1.70;99.90;;;;;;5014176;28;20052;-71
2024/01/06 09:43:56;;;;;;;2.00;1.90;;;1.70;99.90;;;;;;5031860;28;20045;-71
2024/01/06 09:46:27;;;;;;;2.00;1.90;;;1.70;99.90;;;;;;5013986;28;20052;-69
2024/01/06 09:48:54;;;;;;;2.38;2.17;;;1.80;99.90;;;;;;5032163;28;20120;-71
2024/01/06 09:51:21;;;;;;;2.05;1.95;;;1.70;99.90;;;;;;5032115;28;20167;-72
2024/01/06 09:54:00;;;;;;;1.85;1.75;;;1.80;99.90;;;;;;5031757;28;20103;-71
2024/01/06 09:56:28;;;;;;;2.25;2.05;;;1.80;99.90;;;;;;5032101;28;20049;-71
2024/01/06 09:58:54;;;;;;;2.45;2.25;;;1.80;99.90;;;;;;5031868;28;20040;-71
2024/01/06 10:01:20;;;;;;;2.13;1.92;;;1.90;99.90;;;;;;5032228;28;20467;-70
2024/01/06 10:03:46;;;;;;;2.40;2.20;;;1.90;99.90;;;;;;5032100;28;20037;-71
2024/01/06 10:06:14;;;;;;;1.85;1.75;;;1.90;99.90;;;;;;5031893;28;20474;-70
2024/01/06 10:08:48;;;;;;;2.58;2.38;;;1.90;99.90;;;;;;5013826;28;20053;-71
2024/01/06 10:11:14;;;;;;;1.98;1.88;;;1.90;99.90;;;;;;5013951;28;20404;-72
2024/01/06 10:13:39;;;;;;;2.25;2.05;;;2.00;99.90;;;;;;5035826;28;20042;-71
2024/01/06 10:16:06;;;;;;;2.28;2.08;;;2.00;99.90;;;;;;5036211;28;20041;-71
2024/01/06 10:18:32;;;;;;;2.47;2.28;;;2.00;99.90;;;;;;5035723;28;20038;-71
2024/01/06 10:20:58;;;;;;;2.70;2.50;;;2.00;99.90;;;;;;5017963;28;20092;-71
2024/01/06 10:23:26;;;;;;;2.47;2.28;;;2.00;99.90;;;;;;5018203;28;20041;-70
2024/01/06 10:25:54;;;;;;;2.55;2.35;;;2.00;99.90;;;;;;5017952;28;20048;-63
2024/01/06 10:28:22;;;;;;;2.25;2.05;;;2.00;99.90;;;;;;5035765;28;20033;-63
2024/01/06 10:30:51;;;;;;;2.88;2.15;;;2.10;99.90;;;;;;5035857;28;20489;-63
2024/01/06 10:33:16;;;;;;;2.50;2.30;;;2.10;99.90;;;;;;5035882;28;20069;-63
2024/01/06 10:35:42;;;;;;;2.38;2.17;;;2.10;99.90;;;;;;5017636;28;20080;-63
2024/01/06 10:38:08;;;;;;;2.40;2.20;;;2.60;99.90;;;;;;5035699;28;20478;-63
2024/01/06 10:40:33;;;;;;;2.45;2.25;;;2.10;99.90;;;;;;5035584;28;20485;-63
2024/01/06 10:43:01;;;;;;;2.35;2.15;;;2.10;99.90;;;;;;5035375;28;20056;-63
2024/01/06 10:45:28;;;;;;;2.53;2.33;;;2.20;99.90;;;;;;5035528;28;20512;-63
2024/01/06 10:47:55;;;;;;;2.28;2.08;;;3.20;99.90;;;;;;5035505;28;20033;-63
2024/01/06 10:50:21;;;;;;;2.30;2.10;;;2.20;99.90;;;;;;5035222;28;20045;-63
2024/01/06 10:52:48;;;;;;;2.75;2.20;;;2.20;99.90;;;;;;5035472;28;20135;-67
2024/01/06 10:55:20;;;;;;;2.30;2.10;;;2.20;99.90;;;;;;5035353;28;20454;-64
2024/01/06 10:57:48;;;;;;;2.63;2.33;;;2.10;99.90;;;;;;5017305;28;20053;-64
2024/01/06 11:00:14;;;;;;;2.80;2.53;;;2.10;99.90;;;;;;5035012;28;20049;-64
2024/01/06 11:02:41;;;;;;;2.63;2.42;;;2.10;99.90;;;;;;5035276;28;20041;-64
2024/01/06 11:05:10;;;;;;;2.42;2.22;;;2.10;99.90;;;;;;5035145;28;20420;-64
2024/01/06 11:07:37;;;;;;;2.17;1.98;;;2.10;99.90;;;;;;5016781;28;20460;-64
2024/01/06 11:10:18;;;;;;;2.78;2.47;;;2.10;99.90;;;;;;5034796;28;20049;-64
2024/01/06 11:12:44;;;;;;;2.65;2.30;;;2.10;99.90;;;;;;5017089;28;20041;-64
2024/01/06 11:15:09;;;;;;;2.70;2.50;;;2.00;99.90;;;;;;5034684;28;20048;-64
2024/01/06 11:17:57;;;;;;;2.30;2.10;;;2.00;99.90;;;;;;5034954;28;20037;-64
2024/01/06 11:20:24;;;;;;;2.40;2.20;;;2.00;99.90;;;;;;5034536;28;20037;-63
2024/01/06 11:22:50;;;;;;;2.70;2.50;;;2.00;99.90;;;;;;5034590;28;20382;-65
2024/01/06 11:25:18;;;;;;;5.53;5.03;;;2.00;99.90;;;;;;5034327;28;20037;-64
2024/01/06 11:27:45;;;;;;;2.50;2.30;;;2.50;99.90;;;;;;5034758;28;20045;-64
2024/01/06 11:30:23;;;;;;;3.40;3.10;;;2.10;99.90;;;;;;5034644;28;20052;-63
2024/01/06 11:32:52;;;;;;;2.50;2.30;;;2.10;99.90;;;;;;5034657;28;20069;-64
2024/01/06 11:35:18;;;;;;;2.72;2.53;;;2.10;99.90;;;;;;5034802;28;20076;-66
2024/01/06 11:37:43;;;;;;;2.40;2.20;;;2.40;99.90;;;;;;5034559;28;20045;-66
2024/01/06 11:40:13;;;;;;;3.47;3.17;;;2.00;99.90;;;;;;5016553;28;20037;-67
2024/01/06 11:42:41;;;;;;;2.40;2.20;;;2.10;99.90;;;;;;5034526;28;20045;-65
2024/01/06 11:45:08;;;;;;;2.53;2.33;;;2.10;99.90;;;;;;5034446;28;20041;-65
2024/01/06 11:47:35;;;;;;;2.35;2.15;;;2.00;99.90;;;;;;5034131;28;20045;-65
2024/01/06 11:50:04;;;;;;;2.45;2.25;;;2.10;99.90;;;;;;5016605;28;20041;-66
2024/01/06 11:52:34;;;;;;;2.35;2.15;;;2.10;99.90;;;;;;5034340;28;20096;-66
2024/01/06 11:55:00;;;;;;;2.70;2.50;;;2.00;99.90;;;;;;5034352;28;20049;-65
2024/01/06 11:57:27;;;;;;;2.42;2.22;;;2.10;99.90;;;;;;5016447;28;20054;-66
2024/01/06 11:59:53;;;;;;;2.63;2.42;;;2.10;99.90;;;;;;5033824;28;20043;-65
2024/01/06 12:02:19;;;;;;;3.55;3.25;;;2.00;99.90;;;;;;5016359;28;20037;-66
2024/01/06 12:04:54;;;;;;;2.85;2.65;;;2.00;99.90;;;;;;5033869;28;20037;-65
2024/01/06 12:07:24;;;;;;;10.32;9.40;;;2.00;99.90;;;;;;5033711;28;20452;-66
2024/01/06 12:10:00;;;;;;;3.10;2.80;;;2.00;99.90;;;;;;5016213;28;20049;-65
2024/01/06 12:12:25;;;;;;;2.72;2.53;;;2.00;99.90;;;;;;5033929;28;20099;-66
2024/01/06 12:14:51;;;;;;;2.47;2.28;;;2.00;99.90;;;;;;5033881;28;20440;-65
2024/01/06 12:17:16;;;;;;;2.70;2.50;;;2.00;99.90;;;;;;5015820;28;20379;-65
2024/01/06 12:19:42;;;;;;;2.83;2.58;;;2.00;99.90;;;;;;5033725;28;20037;-65
2024/01/06 12:22:13;;;;;;;2.70;2.50;;;1.90;99.90;;;;;;5033786;28;20041;-63
2024/01/06 12:24:38;;;;;;;2.47;2.28;;;2.00;99.90;;;;;;5033758;28;20072;-65
2024/01/06 12:27:09;;;;;;;2.60;2.40;;;2.00;99.90;;;;;;5033629;28;20083;-65
2024/01/06 12:29:39;;;;;;;2.72;2.50;;;2.00;99.90;;;;;;5015638;28;20041;-65
2024/01/06 12:32:05;;;;;;;2.90;2.70;;;1.90;99.90;;;;;;5033584;28;20040;-65
2024/01/06 12:34:30;;;;;;;2.45;2.25;;;1.90;99.90;;;;;;5033207;28;20048;-65
2024/01/06 12:36:56;;;;;;;2.35;2.15;;;1.90;99.90;;;;;;5032739;28;20398;-66
2024/01/06 12:39:23;;;;;;;3.00;2.70;;;1.90;99.90;;;;;;5033456;28;20041;-65
2024/01/06 12:41:50;;;;;;;2.92;2.72;;;1.90;99.90;;;;;;5033048;28;20045;-64
2024/01/06 12:44:16;;;;;;;2.60;2.40;;;1.80;99.90;;;;;;5033536;28;20037;-69
2024/01/06 12:46:41;;;;;;;2.50;2.28;;;1.90;99.90;;;;;;5015216;28;20038;-69
2024/01/06 12:49:07;;;;;;;2.63;2.42;;;1.90;99.90;;;;;;5015286;28;20409;-68
2024/01/06 12:51:33;;;;;;;2.95;2.53;;;1.90;99.90;;;;;;5033213;28;20473;-68
2024/01/06 12:53:58;;;;;;;2.60;2.40;;;1.90;99.90;;;;;;5015154;28;20138;-71
2024/01/06 12:56:24;;;;;;;2.53;2.33;;;1.90;99.90;;;;;;5032825;28;20048;-70
2024/01/06 12:58:50;;;;;;;2.60;2.40;;;1.90;99.90;;;;;;5032850;28;20424;-68